Time;durP1;ratioP1;P1;durP2;ratioP2;P2;SDS_P1;SDS_P2;PMS_P1;PMS_P2;Temp;Humidity;BMP_temperature;BMP_pressure;BME280_temperature;BME280_humidity;BME280_pressure;Samples;Min_cycle;Max_cycle;Signal;HPM_P1;HPM_P2
2022/03/15 00:00:27;;;;;;;28.65;12.90;;;5.70;85.90;;;;;;4972707;29;20039;-86
2022/03/15 00:02:54;;;;;;;28.52;13.02;;;5.60;86.30;;;;;;4974366;28;20027;-87
2022/03/15 00:05:20;;;;;;;34.38;13.63;;;5.60;86.50;;;;;;4974249;28;20027;-88
2022/03/15 00:07:47;;;;;;;38.10;13.45;;;5.50;86.70;;;;;;4988427;28;20042;-85
2022/03/15 00:10:15;;;;;;;31.98;13.80;;;5.50;87.50;;;;;;4974803;29;20034;-87
2022/03/15 00:12:42;;;;;;;31.25;13.80;;;5.40;88.00;;;;;;4975901;28;20034;-88
2022/03/15 00:15:10;;;;;;;30.95;14.02;;;5.40;88.90;;;;;;5004737;23;20051;-84
2022/03/15 00:17:36;;;;;;;36.20;14.88;;;5.30;89.70;;;;;;5003108;28;20037;-84
2022/03/15 00:20:07;;;;;;;31.15;14.20;;;5.30;90.10;;;;;;5001757;28;20023;-85
2022/03/15 00:22:37;;;;;;;34.22;14.50;;;5.20;90.30;;;;;;5001056;28;20034;-84
2022/03/15 00:25:09;;;;;;;31.92;14.02;;;5.20;90.60;;;;;;4985564;28;20045;-84
2022/03/15 00:27:36;;;;;;;31.45;14.20;;;5.10;90.80;;;;;;4985278;28;20031;-84
2022/03/15 00:30:05;;;;;;;31.35;13.40;;;5.10;90.70;;;;;;5000912;28;20047;-83
2022/03/15 00:32:32;;;;;;;41.13;15.07;;;5.10;90.70;;;;;;5003815;28;20073;-84
2022/03/15 00:34:59;;;;;;;32.63;14.23;;;5.10;90.60;;;;;;5015980;28;20082;-83
2022/03/15 00:37:26;;;;;;;36.40;14.70;;;5.10;90.50;;;;;;5015656;28;20105;-83
2022/03/15 00:39:51;;;;;;;29.20;14.00;;;5.00;90.30;;;;;;5015307;28;20019;-83
2022/03/15 00:42:18;;;;;;;38.30;14.95;;;5.00;90.30;;;;;;5013516;28;20034;-83
2022/03/15 00:44:43;;;;;;;39.33;14.32;;;5.00;90.40;;;;;;5016253;28;20018;-82
2022/03/15 00:47:10;;;;;;;34.53;14.77;;;5.00;90.80;;;;;;5013830;28;20074;-84
2022/03/15 00:49:36;;;;;;;32.15;14.25;;;4.90;90.90;;;;;;5014142;28;20030;-83
2022/03/15 00:52:03;;;;;;;29.63;15.00;;;4.90;91.40;;;;;;5013732;28;20030;-82
2022/03/15 00:54:29;;;;;;;33.08;14.40;;;4.80;91.70;;;;;;5014146;28;20048;-83
2022/03/15 00:56:56;;;;;;;35.80;15.32;;;4.80;92.00;;;;;;5015836;28;20037;-84
2022/03/15 00:59:23;;;;;;;33.97;16.30;;;4.80;92.30;;;;;;5015865;28;20026;-83
2022/03/15 01:01:49;;;;;;;42.00;16.25;;;4.70;92.50;;;;;;5017179;28;20040;-82
2022/03/15 01:04:15;;;;;;;36.60;15.95;;;4.70;93.00;;;;;;5020718;28;20019;-83
2022/03/15 01:06:42;;;;;;;34.30;14.65;;;4.70;93.20;;;;;;5015119;28;20045;-83
2022/03/15 01:09:09;;;;;;;35.22;15.10;;;4.70;93.40;;;;;;5002836;28;20098;-83
2022/03/15 01:11:36;;;;;;;34.92;15.82;;;4.60;93.80;;;;;;5020084;28;20035;-84
2022/03/15 01:14:02;;;;;;;34.97;16.58;;;4.60;93.90;;;;;;5011800;28;20029;-85
2022/03/15 01:16:29;;;;;;;42.22;15.98;;;4.60;94.20;;;;;;4995848;28;20034;-84
2022/03/15 01:18:56;;;;;;;35.53;15.40;;;4.60;94.40;;;;;;5014409;28;20069;-84
2022/03/15 01:21:25;;;;;;;39.80;15.73;;;4.60;94.50;;;;;;5011426;28;20035;-84
2022/03/15 01:23:51;;;;;;;33.15;16.23;;;4.60;94.60;;;;;;5015534;28;20026;-84
2022/03/15 01:26:18;;;;;;;34.50;15.60;;;4.60;94.70;;;;;;4997810;28;20041;-83
2022/03/15 01:28:43;;;;;;;35.22;15.80;;;4.60;94.50;;;;;;5014369;28;20042;-84
2022/03/15 01:31:11;;;;;;;30.98;15.27;;;4.60;94.40;;;;;;5014950;28;20038;-84
2022/03/15 01:33:37;;;;;;;33.58;15.55;;;4.60;94.50;;;;;;5015437;28;20029;-82
2022/03/15 01:36:03;;;;;;;35.95;15.85;;;4.60;94.50;;;;;;5014776;28;20038;-82
2022/03/15 01:38:30;;;;;;;33.00;16.13;;;4.60;94.70;;;;;;5017305;28;20021;-83
2022/03/15 01:40:56;;;;;;;30.40;16.42;;;4.60;95.30;;;;;;5017036;28;20022;-83
2022/03/15 01:43:22;;;;;;;36.63;15.95;;;4.50;95.90;;;;;;5015576;28;20034;-82
2022/03/15 01:45:48;;;;;;;37.78;16.65;;;4.50;96.50;;;;;;5015166;28;20038;-83
2022/03/15 01:48:13;;;;;;;34.33;16.30;;;4.50;96.60;;;;;;5000493;28;20030;-83
2022/03/15 01:50:39;;;;;;;47.13;16.83;;;4.40;96.70;;;;;;5000134;28;20046;-83
2022/03/15 01:53:06;;;;;;;38.40;15.63;;;4.40;96.70;;;;;;5018970;28;20059;-84
2022/03/15 01:55:32;;;;;;;40.65;16.90;;;4.30;97.00;;;;;;5018951;28;20053;-83
2022/03/15 01:57:58;;;;;;;38.85;16.25;;;4.30;97.20;;;;;;5018960;28;20034;-84
2022/03/15 02:00:24;;;;;;;46.67;16.85;;;4.30;97.30;;;;;;5002532;28;20029;-83
2022/03/15 02:02:50;;;;;;;41.47;17.02;;;4.30;97.40;;;;;;5011256;28;20027;-84
2022/03/15 02:05:16;;;;;;;46.20;16.15;;;4.30;97.40;;;;;;5014284;28;20046;-83
2022/03/15 02:07:43;;;;;;;36.42;16.67;;;4.30;97.60;;;;;;5015777;28;20029;-83
2022/03/15 02:10:10;;;;;;;40.58;16.70;;;4.20;97.70;;;;;;5016510;28;20031;-82
2022/03/15 02:12:38;;;;;;;39.67;15.90;;;4.20;98.50;;;;;;5015456;28;20015;-84
2022/03/15 02:15:06;;;;;;;35.30;15.80;;;4.20;98.90;;;;;;5015035;28;20081;-84
2022/03/15 02:17:32;;;;;;;34.85;15.90;;;4.20;98.70;;;;;;5016132;28;20053;-83
2022/03/15 02:19:58;;;;;;;34.33;15.90;;;4.20;98.70;;;;;;5016944;28;20032;-84
2022/03/15 02:22:25;;;;;;;38.55;17.27;;;4.10;98.70;;;;;;5015059;28;20054;-82
2022/03/15 02:24:51;;;;;;;37.22;16.58;;;4.20;98.80;;;;;;5016166;28;20102;-83
2022/03/15 02:27:19;;;;;;;47.10;16.50;;;4.20;98.80;;;;;;5012029;28;20045;-84
2022/03/15 02:29:45;;;;;;;44.15;16.65;;;4.10;98.70;;;;;;5007061;28;20050;-83
2022/03/15 02:32:11;;;;;;;46.72;16.08;;;4.10;98.60;;;;;;5010541;28;20010;-84
2022/03/15 02:34:37;;;;;;;38.15;16.92;;;4.10;98.60;;;;;;5015726;28;20050;-82
2022/03/15 02:37:03;;;;;;;33.80;15.68;;;4.10;98.60;;;;;;5014669;28;20037;-83
2022/03/15 02:39:29;;;;;;;35.30;16.42;;;4.10;98.50;;;;;;5012086;28;20033;-83
2022/03/15 02:41:55;;;;;;;33.80;15.60;;;4.10;98.30;;;;;;5014965;28;20421;-83
2022/03/15 02:44:23;;;;;;;31.88;14.98;;;4.10;98.20;;;;;;5013408;28;20113;-84
2022/03/15 02:46:50;;;;;;;33.67;16.10;;;4.10;98.10;;;;;;5003072;28;20038;-83
2022/03/15 02:49:16;;;;;;;32.47;15.32;;;4.10;98.00;;;;;;5003995;28;20034;-85
2022/03/15 02:51:42;;;;;;;34.47;15.25;;;4.10;98.00;;;;;;5001829;28;20034;-84
2022/03/15 02:54:13;;;;;;;37.92;15.68;;;4.10;98.10;;;;;;5004700;28;20094;-82
2022/03/15 02:56:42;;;;;;;33.88;14.63;;;4.10;98.30;;;;;;4997239;28;20048;-85
2022/03/15 02:59:09;;;;;;;37.97;15.82;;;4.10;98.40;;;;;;5002721;28;20026;-83
2022/03/15 03:01:34;;;;;;;31.95;15.02;;;4.10;98.40;;;;;;5002151;28;20465;-85
2022/03/15 03:04:01;;;;;;;33.17;14.73;;;4.10;98.50;;;;;;5000917;28;20042;-84
2022/03/15 03:06:27;;;;;;;38.00;15.80;;;4.10;98.60;;;;;;5002492;28;20033;-84
2022/03/15 03:08:52;;;;;;;37.63;15.43;;;4.10;98.70;;;;;;5003911;28;20085;-84
2022/03/15 03:11:18;;;;;;;42.22;14.75;;;4.10;98.80;;;;;;5003766;28;20053;-84
2022/03/15 03:13:47;;;;;;;33.05;15.18;;;4.00;98.60;;;;;;5003308;28;20102;-84
2022/03/15 03:16:13;;;;;;;41.90;15.50;;;4.00;98.60;;;;;;5000477;28;20108;-83
2022/03/15 03:18:39;;;;;;;40.22;15.13;;;4.00;98.50;;;;;;5005169;28;20027;-84
2022/03/15 03:21:06;;;;;;;34.63;15.35;;;4.00;98.60;;;;;;5000923;28;20490;-85
2022/03/15 03:23:34;;;;;;;33.50;15.63;;;4.00;98.90;;;;;;4999746;28;20088;-83
2022/03/15 03:26:02;;;;;;;38.40;15.57;;;4.00;98.80;;;;;;5003317;28;20046;-81
2022/03/15 03:28:36;;;;;;;35.08;15.75;;;4.00;99.30;;;;;;5003182;28;20114;-83
2022/03/15 03:31:08;;;;;;;40.75;15.88;;;4.00;99.90;;;;;;5002029;28;20034;-82
2022/03/15 03:33:34;;;;;;;34.80;16.25;;;4.00;99.90;;;;;;5002540;28;20034;-84
2022/03/15 03:36:02;;;;;;;33.40;17.15;;;4.00;99.90;;;;;;5007400;28;20050;-84
2022/03/15 03:38:28;;;;;;;35.88;15.57;;;4.00;99.90;;;;;;5008236;28;20022;-83
2022/03/15 03:40:54;;;;;;;37.20;15.20;;;4.00;99.90;;;;;;5002693;28;20094;-85
2022/03/15 03:43:20;;;;;;;41.95;16.67;;;4.00;99.90;;;;;;5002139;28;20030;-81
2022/03/15 03:45:46;;;;;;;37.47;16.60;;;4.00;99.90;;;;;;5001762;28;20022;-84
2022/03/15 03:48:12;;;;;;;40.28;15.63;;;4.00;99.90;;;;;;5001656;28;20037;-84
2022/03/15 03:50:40;;;;;;;38.30;15.40;;;3.90;99.90;;;;;;4999337;28;20041;-84
2022/03/15 03:53:07;;;;;;;39.38;15.35;;;4.00;99.90;;;;;;5000099;28;20036;-84
2022/03/15 03:55:33;;;;;;;41.67;15.73;;;3.90;99.90;;;;;;4999640;28;20093;-84
2022/03/15 03:58:00;;;;;;;45.13;17.05;;;3.90;99.90;;;;;;5000569;28;20073;-83
2022/03/15 04:00:26;;;;;;;40.00;15.82;;;3.90;99.90;;;;;;4998333;28;20045;-85
2022/03/15 04:02:54;;;;;;;32.70;14.70;;;3.90;99.90;;;;;;4997653;28;20071;-84
2022/03/15 04:05:20;;;;;;;32.70;16.13;;;3.90;99.90;;;;;;4999113;28;20089;-85
2022/03/15 04:07:46;;;;;;;32.97;15.73;;;3.90;99.90;;;;;;4982268;28;20027;-84
2022/03/15 04:10:12;;;;;;;38.92;15.70;;;3.90;99.90;;;;;;4998123;28;20026;-84
2022/03/15 04:12:41;;;;;;;38.58;16.30;;;3.90;99.90;;;;;;4999504;28;20038;-82
2022/03/15 04:15:08;;;;;;;36.80;15.60;;;3.90;99.90;;;;;;4998230;28;20058;-84
2022/03/15 04:17:34;;;;;;;37.97;16.17;;;3.90;99.90;;;;;;5000628;28;20049;-84
2022/03/15 04:20:00;;;;;;;32.38;17.92;;;3.80;99.90;;;;;;5006573;28;20025;-82
2022/03/15 04:22:26;;;;;;;35.67;15.23;;;3.80;99.90;;;;;;5007754;28;20030;-83
2022/03/15 04:24:52;;;;;;;40.50;16.75;;;3.80;99.90;;;;;;5003863;28;20479;-83
2022/03/15 04:27:18;;;;;;;36.22;16.35;;;3.70;99.90;;;;;;4999844;28;20038;-83
2022/03/15 04:29:44;;;;;;;44.55;16.67;;;3.70;99.90;;;;;;4997752;28;20109;-84
2022/03/15 04:32:10;;;;;;;35.90;16.65;;;3.70;99.90;;;;;;5001110;28;20034;-84
2022/03/15 04:34:36;;;;;;;32.90;16.00;;;3.70;99.90;;;;;;4985680;28;20418;-83
2022/03/15 04:37:04;;;;;;;39.45;16.02;;;3.70;99.90;;;;;;5004665;28;20034;-84
2022/03/15 04:39:29;;;;;;;35.65;16.65;;;3.70;99.90;;;;;;5006288;28;20061;-84
2022/03/15 04:41:56;;;;;;;32.85;15.98;;;3.70;99.90;;;;;;5003065;28;20058;-84
2022/03/15 04:44:22;;;;;;;35.55;15.20;;;3.70;99.90;;;;;;5001888;28;20018;-85
2022/03/15 04:46:48;;;;;;;33.63;15.77;;;3.70;99.90;;;;;;5004359;28;20074;-85
2022/03/15 04:49:13;;;;;;;33.45;15.82;;;3.70;99.90;;;;;;5020258;28;20015;-83
2022/03/15 04:51:39;;;;;;;31.35;15.65;;;3.70;99.90;;;;;;5015899;28;20038;-84
2022/03/15 04:54:05;;;;;;;35.13;15.48;;;3.70;99.90;;;;;;5015795;28;20033;-84
2022/03/15 04:56:31;;;;;;;39.47;16.00;;;3.70;99.90;;;;;;5012821;28;20371;-87
2022/03/15 04:58:57;;;;;;;38.70;15.57;;;3.70;99.90;;;;;;5010022;28;20026;-82
2022/03/15 05:01:23;;;;;;;37.30;16.20;;;3.70;99.90;;;;;;5011257;28;20034;-84
2022/03/15 05:03:49;;;;;;;32.75;16.02;;;3.70;99.90;;;;;;5010611;28;20050;-84
2022/03/15 05:06:15;;;;;;;32.20;15.85;;;3.70;99.90;;;;;;5007665;28;20117;-84
2022/03/15 05:08:41;;;;;;;36.58;15.90;;;3.70;99.90;;;;;;5004183;28;20030;-84
2022/03/15 05:11:06;;;;;;;36.65;16.65;;;3.70;99.90;;;;;;5005816;28;20030;-84
2022/03/15 05:13:40;;;;;;;33.30;16.83;;;3.70;99.90;;;;;;5004628;28;20040;-83
2022/03/15 05:16:08;;;;;;;40.92;16.35;;;3.70;99.90;;;;;;5004536;28;20090;-84
2022/03/15 05:18:34;;;;;;;35.25;16.35;;;3.70;99.90;;;;;;5004465;28;20051;-85
2022/03/15 05:21:02;;;;;;;33.80;15.88;;;3.70;99.90;;;;;;5005644;28;20034;-84
2022/03/15 05:23:27;;;;;;;35.58;16.27;;;3.70;99.90;;;;;;5003352;28;20018;-83
2022/03/15 05:25:53;;;;;;;34.42;16.58;;;3.70;99.90;;;;;;5006581;28;20098;-84
2022/03/15 05:28:19;;;;;;;35.08;17.02;;;3.80;99.90;;;;;;5006360;28;20034;-82
2022/03/15 05:30:45;;;;;;;37.58;15.32;;;3.80;99.90;;;;;;5006874;28;20560;-85
2022/03/15 05:33:11;;;;;;;33.85;16.63;;;3.80;99.90;;;;;;5015230;28;20030;-85
2022/03/15 05:35:40;;;;;;;39.90;16.00;;;3.90;99.90;;;;;;5013710;28;20065;-86
2022/03/15 05:38:09;;;;;;;40.17;16.85;;;3.90;99.90;;;;;;5004045;28;20505;-84
2022/03/15 05:40:35;;;;;;;33.92;15.50;;;3.90;99.90;;;;;;5014961;28;20046;-86
2022/03/15 05:43:03;;;;;;;39.72;16.52;;;4.00;99.90;;;;;;5005772;28;20026;-84
2022/03/15 05:45:29;;;;;;;41.50;16.70;;;4.00;99.90;;;;;;5003402;28;20030;-83
2022/03/15 05:47:55;;;;;;;41.30;15.98;;;4.10;99.90;;;;;;5014257;28;20023;-84
2022/03/15 05:50:21;;;;;;;38.05;16.40;;;4.10;99.90;;;;;;5018984;28;20106;-84
2022/03/15 05:52:47;;;;;;;42.25;17.05;;;4.10;99.90;;;;;;5006742;28;20054;-84
2022/03/15 05:55:13;;;;;;;38.42;15.88;;;4.20;99.90;;;;;;5018708;28;20054;-82
2022/03/15 05:57:39;;;;;;;33.25;15.32;;;4.30;99.90;;;;;;5005529;28;20030;-84
2022/03/15 06:00:06;;;;;;;39.08;15.98;;;4.40;99.90;;;;;;5000380;28;20033;-84
2022/03/15 06:02:39;;;;;;;33.63;16.10;;;4.50;99.90;;;;;;5001955;28;20037;-85
2022/03/15 06:05:07;;;;;;;37.92;16.58;;;4.60;99.20;;;;;;5001404;28;20030;-85
2022/03/15 06:07:33;;;;;;;34.17;16.33;;;4.70;98.60;;;;;;5001244;28;20030;-83
2022/03/15 06:10:00;;;;;;;34.40;15.85;;;4.70;98.40;;;;;;5001151;28;20038;-85
2022/03/15 06:12:26;;;;;;;35.63;15.95;;;4.80;98.10;;;;;;5001467;28;20410;-86
2022/03/15 06:14:53;;;;;;;38.50;16.25;;;4.90;97.80;;;;;;5000399;28;20038;-87
2022/03/15 06:17:19;;;;;;;40.15;16.52;;;5.00;97.20;;;;;;5001371;28;20034;-86
2022/03/15 06:19:45;;;;;;;43.00;16.23;;;5.10;96.30;;;;;;5001831;28;20418;-84
2022/03/15 06:22:10;;;;;;;33.05;16.13;;;5.10;96.10;;;;;;5056538;23;20123;-86
2022/03/15 06:24:37;;;;;;;39.47;16.67;;;5.20;95.80;;;;;;5066038;28;20071;-85
2022/03/15 06:27:03;;;;;;;35.28;16.98;;;5.20;95.90;;;;;;5070456;28;20630;-85
2022/03/15 06:29:30;;;;;;;47.30;17.77;;;5.30;96.10;;;;;;5067221;28;20028;-84
2022/03/15 06:31:56;;;;;;;40.13;16.65;;;5.40;96.20;;;;;;5049988;28;20032;-85
2022/03/15 06:34:23;;;;;;;44.70;16.95;;;5.40;96.10;;;;;;5046224;28;20481;-86
2022/03/15 06:36:49;;;;;;;39.25;17.40;;;5.60;96.00;;;;;;5047366;28;20053;-85
2022/03/15 06:39:15;;;;;;;42.70;17.20;;;5.70;95.60;;;;;;5049502;28;20030;-85
2022/03/15 06:41:43;;;;;;;47.50;16.40;;;5.70;95.30;;;;;;5057384;28;20032;-83
2022/03/15 06:44:09;;;;;;;37.72;18.38;;;5.80;95.00;;;;;;5058509;28;20018;-83
2022/03/15 06:46:35;;;;;;;35.72;17.23;;;5.80;94.70;;;;;;5057558;28;20029;-85
2022/03/15 06:49:02;;;;;;;44.58;17.73;;;5.90;94.40;;;;;;5056891;28;20037;-85
2022/03/15 06:51:28;;;;;;;47.22;17.77;;;5.90;94.00;;;;;;5057894;28;20044;-84
2022/03/15 06:53:57;;;;;;;33.08;17.15;;;6.00;93.40;;;;;;5056520;28;20014;-87
2022/03/15 06:56:23;;;;;;;31.55;16.58;;;6.10;93.00;;;;;;5058109;28;20049;-84
2022/03/15 06:58:50;;;;;;;34.67;17.00;;;6.10;92.70;;;;;;5057243;28;20036;-83
2022/03/15 07:01:16;;;;;;;36.30;17.77;;;6.20;92.30;;;;;;5056919;28;20071;-85
2022/03/15 07:03:42;;;;;;;37.13;16.85;;;6.20;92.10;;;;;;5057132;28;20093;-86
2022/03/15 07:06:08;;;;;;;35.53;16.83;;;6.20;92.10;;;;;;5057869;28;20021;-85
2022/03/15 07:08:34;;;;;;;34.45;17.63;;;6.20;92.10;;;;;;5058004;28;20026;-86
2022/03/15 07:10:59;;;;;;;38.60;17.50;;;6.30;92.00;;;;;;5057515;28;20044;-83
2022/03/15 07:13:25;;;;;;;31.02;16.13;;;6.40;91.80;;;;;;5057601;28;20106;-84
2022/03/15 07:15:51;;;;;;;44.95;17.38;;;6.50;91.80;;;;;;5038771;28;20029;-86
2022/03/15 07:18:18;;;;;;;41.63;17.95;;;6.40;91.80;;;;;;5045791;28;20127;-85
2022/03/15 07:20:44;;;;;;;45.95;17.42;;;6.50;91.70;;;;;;5027802;28;20025;-87
2022/03/15 07:23:10;;;;;;;42.45;17.83;;;6.40;91.60;;;;;;5051274;28;20084;-85
2022/03/15 07:25:36;;;;;;;46.78;18.15;;;6.40;91.50;;;;;;5056216;28;20037;-86
2022/03/15 07:28:01;;;;;;;38.83;17.25;;;6.40;91.50;;;;;;5057447;28;20033;-84
2022/03/15 07:30:28;;;;;;;35.25;18.02;;;6.40;91.50;;;;;;5057961;28;20028;-87
2022/03/15 07:32:54;;;;;;;43.60;18.35;;;6.60;91.60;;;;;;5057480;28;20425;-83
2022/03/15 07:35:20;;;;;;;42.15;19.85;;;6.80;91.60;;;;;;5056650;28;20025;-84
2022/03/15 07:37:50;;;;;;;38.75;17.50;;;7.00;91.70;;;;;;5057021;28;20077;-85
2022/03/15 07:40:15;;;;;;;34.03;17.55;;;7.10;91.50;;;;;;5057520;28;20005;-85
2022/03/15 07:42:41;;;;;;;40.70;18.67;;;7.30;91.30;;;;;;5056469;28;20022;-85
2022/03/15 07:45:08;;;;;;;33.38;17.08;;;7.50;90.90;;;;;;5057057;28;20017;-84
2022/03/15 07:47:34;;;;;;;35.83;17.20;;;7.70;90.70;;;;;;5056014;28;20112;-85
2022/03/15 07:50:00;;;;;;;43.42;18.30;;;7.90;90.40;;;;;;5050586;28;20026;-85
2022/03/15 07:52:26;;;;;;;39.97;18.85;;;8.00;90.10;;;;;;5055031;28;20041;-83
2022/03/15 07:54:52;;;;;;;41.53;17.08;;;8.00;89.70;;;;;;5052665;28;20053;-85
2022/03/15 07:57:18;;;;;;;64.10;17.98;;;8.10;89.40;;;;;;5051864;28;20021;-86
2022/03/15 07:59:46;;;;;;;39.78;18.30;;;8.20;89.40;;;;;;5047451;28;20029;-86
2022/03/15 08:02:14;;;;;;;34.20;15.23;;;8.40;89.40;;;;;;5054625;28;20065;-84
2022/03/15 08:04:39;;;;;;;29.33;15.05;;;8.50;87.90;;;;;;5049622;28;20051;-85
2022/03/15 08:07:05;;;;;;;33.83;15.63;;;8.60;87.20;;;;;;5047233;28;20021;-85
2022/03/15 08:09:31;;;;;;;31.05;15.23;;;8.70;86.50;;;;;;5044490;28;20030;-84
2022/03/15 08:11:57;;;;;;;29.52;15.95;;;8.70;85.90;;;;;;5048784;28;20061;-85
2022/03/15 08:14:23;;;;;;;33.00;15.00;;;8.80;86.00;;;;;;5052301;28;20057;-84
2022/03/15 08:16:49;;;;;;;37.10;15.38;;;8.90;85.10;;;;;;5060032;28;20053;-86
2022/03/15 08:19:14;;;;;;;32.30;14.82;;;8.90;85.80;;;;;;5047010;28;20025;-87
2022/03/15 08:21:40;;;;;;;28.02;15.20;;;8.90;85.10;;;;;;5029094;28;20038;-87
2022/03/15 08:24:06;;;;;;;39.25;15.05;;;8.80;85.10;;;;;;5048366;28;20025;-85
2022/03/15 08:26:32;;;;;;;38.25;15.57;;;8.90;84.90;;;;;;5044729;28;20104;-85
2022/03/15 08:28:58;;;;;;;29.05;15.70;;;8.90;84.20;;;;;;5047819;28;20024;-86
2022/03/15 08:31:24;;;;;;;35.15;15.30;;;8.80;84.40;;;;;;5047885;28;20108;-84
2022/03/15 08:33:49;;;;;;;28.88;15.02;;;8.90;85.00;;;;;;5046322;28;20054;-86
2022/03/15 08:36:15;;;;;;;37.45;14.80;;;9.10;84.20;;;;;;5045936;28;20060;-86
2022/03/15 08:38:41;;;;;;;35.85;15.00;;;9.30;83.60;;;;;;5026737;28;20121;-85
2022/03/15 08:41:08;;;;;;;35.88;15.77;;;9.40;83.20;;;;;;5046489;28;20030;-86
2022/03/15 08:43:34;;;;;;;32.42;16.60;;;9.70;82.40;;;;;;5046142;28;20097;-85
2022/03/15 08:46:00;;;;;;;31.17;16.17;;;9.90;82.40;;;;;;5046652;28;20397;-86
2022/03/15 08:48:26;;;;;;;34.97;15.68;;;10.00;81.80;;;;;;5045225;28;20393;-86
2022/03/15 08:50:52;;;;;;;28.02;15.85;;;10.20;81.30;;;;;;5021652;28;20029;-86
2022/03/15 08:53:19;;;;;;;27.77;14.75;;;10.40;80.90;;;;;;5043718;28;20436;-86
2022/03/15 08:55:44;;;;;;;30.58;14.98;;;10.40;80.40;;;;;;5048161;28;20028;-86
2022/03/15 08:58:11;;;;;;;27.90;15.60;;;10.70;80.40;;;;;;5057056;28;20052;-85
2022/03/15 09:00:37;;;;;;;27.88;14.40;;;10.80;79.60;;;;;;5051269;28;20105;-85
2022/03/15 09:03:03;;;;;;;34.50;16.38;;;10.90;79.70;;;;;;5056634;28;20005;-87
2022/03/15 09:05:28;;;;;;;30.13;15.13;;;11.10;79.60;;;;;;5055582;28;20462;-84
2022/03/15 09:07:56;;;;;;;32.40;16.00;;;11.30;79.60;;;;;;5054969;28;20030;-88
2022/03/15 09:10:24;;;;;;;30.20;15.98;;;11.40;78.70;;;;;;5048211;28;20033;-88
2022/03/15 09:12:50;;;;;;;35.13;17.40;;;11.70;77.80;;;;;;5047553;28;20030;-87
2022/03/15 09:15:17;;;;;;;32.60;15.48;;;11.80;77.60;;;;;;5049243;28;20118;-87
2022/03/15 09:17:43;;;;;;;29.05;15.98;;;12.10;76.90;;;;;;5052702;28;20025;-85
2022/03/15 09:20:09;;;;;;;42.88;16.40;;;12.60;76.70;;;;;;5053224;28;20052;-86
2022/03/15 09:22:35;;;;;;;44.30;17.98;;;12.90;75.60;;;;;;5051669;28;20049;-85
2022/03/15 09:25:05;;;;;;;32.67;15.55;;;13.20;75.00;;;;;;5054855;28;20029;-85
2022/03/15 09:27:31;;;;;;;33.47;15.40;;;13.50;73.90;;;;;;5053029;28;20017;-86
2022/03/15 09:29:58;;;;;;;32.30;14.38;;;13.80;73.60;;;;;;5052661;28;20041;-86
2022/03/15 09:32:25;;;;;;;46.33;16.48;;;14.00;73.30;;;;;;5053606;28;20524;-86
2022/03/15 09:34:51;;;;;;;32.83;15.93;;;14.30;72.50;;;;;;5054487;28;20025;-84
2022/03/15 09:37:18;;;;;;;40.83;16.50;;;14.40;72.60;;;;;;5054336;28;20441;-86
2022/03/15 09:39:45;;;;;;;39.13;15.13;;;14.50;71.50;;;;;;5055449;28;20044;-86
2022/03/15 09:42:11;;;;;;;29.42;15.80;;;14.70;71.20;;;;;;5054048;28;20025;-88
2022/03/15 09:44:42;;;;;;;30.33;15.07;;;15.00;70.60;;;;;;5051555;28;20032;-88
2022/03/15 09:47:08;;;;;;;27.05;14.70;;;15.20;70.10;;;;;;5052260;28;20044;-89
2022/03/15 09:49:36;;;;;;;33.25;15.20;;;15.30;69.70;;;;;;5053904;28;20048;-88
2022/03/15 09:52:06;;;;;;;26.55;14.95;;;15.50;69.70;;;;;;5052512;28;20118;-87
2022/03/15 09:54:32;;;;;;;27.55;14.50;;;16.00;68.60;;;;;;5056606;28;20022;-88
2022/03/15 09:56:59;;;;;;;26.42;14.80;;;16.70;67.70;;;;;;5056354;28;20081;-88
2022/03/15 09:59:26;;;;;;;34.92;14.10;;;17.00;66.50;;;;;;5052263;28;20029;-86
2022/03/15 10:01:54;;;;;;;28.10;13.68;;;17.40;65.90;;;;;;5050119;28;20025;-86
2022/03/15 10:04:22;;;;;;;27.40;14.00;;;18.00;64.60;;;;;;5052020;28;20033;-87
2022/03/15 10:06:50;;;;;;;30.05;14.23;;;18.10;64.30;;;;;;5051700;28;20017;-86
2022/03/15 10:09:16;;;;;;;24.35;12.95;;;18.50;63.10;;;;;;5050728;28;20017;-85
2022/03/15 10:11:42;;;;;;;27.83;14.18;;;18.40;62.60;;;;;;5053390;28;20009;-84
2022/03/15 10:14:09;;;;;;;33.97;13.63;;;18.10;62.50;;;;;;5057846;28;20033;-86
2022/03/15 10:16:43;;;;;;;26.48;13.50;;;18.30;62.00;;;;;;5056908;28;20052;-85
2022/03/15 10:19:11;;;;;;;24.73;13.07;;;18.80;61.40;;;;;;5054008;28;20029;-85
2022/03/15 10:21:53;;;;;;;22.98;12.55;;;19.80;60.10;;;;;;5053652;28;20117;-85
2022/03/15 10:24:25;;;;;;;28.20;13.20;;;20.40;59.40;;;;;;5056203;28;20037;-86
2022/03/15 10:26:53;;;;;;;26.13;13.07;;;21.30;57.90;;;;;;5053226;28;20492;-87
2022/03/15 10:29:21;;;;;;;22.30;13.45;;;20.80;58.00;;;;;;5052304;28;20025;-88
2022/03/15 10:31:48;;;;;;;26.48;14.48;;;20.70;57.70;;;;;;5050903;28;20049;-85
2022/03/15 10:34:16;;;;;;;38.92;13.52;;;20.80;57.60;;;;;;5057501;28;20009;-86
2022/03/15 10:36:45;;;;;;;22.33;13.30;;;20.10;57.60;;;;;;5057334;28;20033;-85
2022/03/15 10:39:14;;;;;;;27.30;12.82;;;20.40;57.60;;;;;;5057982;28;20010;-83
2022/03/15 10:41:51;;;;;;;26.85;13.18;;;19.90;58.20;;;;;;5054700;28;20045;-86
2022/03/15 10:44:25;;;;;;;35.15;13.63;;;19.50;58.30;;;;;;5051629;28;20093;-86
2022/03/15 10:47:13;;;;;;;29.00;13.00;;;18.70;59.00;;;;;;5051489;28;20084;-86
2022/03/15 10:50:03;;;;;;;21.65;11.90;;;18.50;59.20;;;;;;5052199;28;20025;-85
2022/03/15 10:52:31;;;;;;;24.98;12.55;;;18.70;59.40;;;;;;5051827;28;20021;-85
2022/03/15 10:55:11;;;;;;;31.88;13.55;;;18.40;59.20;;;;;;5050251;28;20107;-85
2022/03/15 10:58:05;;;;;;;24.60;12.32;;;18.40;59.70;;;;;;5052684;28;20069;-84
2022/03/15 11:00:36;;;;;;;26.52;12.80;;;18.30;59.70;;;;;;5054914;28;20113;-85
2022/03/15 11:03:06;;;;;;;24.77;12.63;;;18.00;59.80;;;;;;5053828;28;20040;-85
2022/03/15 11:05:35;;;;;;;18.55;11.23;;;17.70;60.30;;;;;;5052383;28;20032;-86
2022/03/15 11:08:06;;;;;;;25.08;13.15;;;17.30;61.20;;;;;;5054745;28;20021;-85
2022/03/15 11:10:32;;;;;;;35.47;13.18;;;16.90;61.80;;;;;;5055823;28;20029;-86
2022/03/15 11:13:09;;;;;;;27.98;11.85;;;16.70;62.30;;;;;;5053869;28;20072;-85
2022/03/15 11:15:42;;;;;;;25.90;12.65;;;16.70;63.00;;;;;;5056525;28;20052;-84
2022/03/15 11:18:11;;;;;;;26.80;11.73;;;16.80;63.30;;;;;;5055513;28;20069;-87
2022/03/15 11:20:39;;;;;;;24.45;11.70;;;16.90;63.10;;;;;;5053311;28;20018;-85
2022/03/15 11:23:08;;;;;;;23.13;11.55;;;16.80;63.00;;;;;;5050290;28;20069;-85
2022/03/15 11:25:35;;;;;;;26.50;11.48;;;16.60;63.50;;;;;;5050343;28;20048;-85
2022/03/15 11:28:04;;;;;;;26.48;12.50;;;16.50;63.80;;;;;;5051555;28;20017;-87
2022/03/15 11:30:31;;;;;;;23.00;11.70;;;16.50;64.10;;;;;;5047255;28;20033;-87
2022/03/15 11:33:00;;;;;;;30.10;11.77;;;16.50;64.30;;;;;;5051774;28;20026;-85
2022/03/15 11:35:29;;;;;;;19.90;9.95;;;16.40;64.40;;;;;;5052714;28;20010;-87
2022/03/15 11:37:57;;;;;;;24.92;11.50;;;16.40;64.70;;;;;;5052981;28;20037;-86
2022/03/15 11:40:23;;;;;;;21.63;11.40;;;16.40;65.00;;;;;;5049643;28;20025;-86
2022/03/15 11:43:23;;;;;;;19.70;10.38;;;16.40;65.40;;;;;;5046679;28;20029;-87
2022/03/15 11:46:12;;;;;;;23.95;10.23;;;16.30;65.10;;;;;;5040833;28;20101;-86
2022/03/15 11:48:48;;;;;;;22.33;10.48;;;16.20;65.00;;;;;;5051473;28;20026;-84
2022/03/15 11:51:50;;;;;;;22.33;10.68;;;16.10;65.10;;;;;;5040648;28;20107;-84
2022/03/15 11:54:39;;;;;;;17.92;10.13;;;16.00;65.40;;;;;;5046776;28;20029;-88
2022/03/15 11:57:17;;;;;;;20.77;10.07;;;15.80;65.90;;;;;;5044629;28;20120;-86
2022/03/15 11:59:47;;;;;;;23.70;9.85;;;15.70;66.40;;;;;;5045682;28;20056;-85
2022/03/15 12:02:13;;;;;;;22.48;10.15;;;15.70;66.80;;;;;;5029796;28;20026;-87
2022/03/15 12:04:44;;;;;;;19.10;9.38;;;15.90;66.80;;;;;;5047861;28;20045;-90
2022/03/15 12:07:11;;;;;;;19.35;8.60;;;16.30;66.10;;;;;;5034717;28;20025;-86
2022/03/15 12:09:45;;;;;;;21.95;8.85;;;16.80;65.30;;;;;;5053869;28;20022;-85
2022/03/15 12:12:11;;;;;;;16.20;8.13;;;17.60;64.20;;;;;;5052553;28;20013;-86
2022/03/15 12:14:43;;;;;;;17.42;7.40;;;18.60;62.70;;;;;;5054564;28;20031;-83
2022/03/15 12:17:11;;;;;;;20.42;8.10;;;19.70;60.80;;;;;;5054231;28;20028;-85
2022/03/15 12:19:47;;;;;;;16.10;8.10;;;21.30;59.00;;;;;;5054190;28;20045;-86
2022/03/15 12:22:29;;;;;;;20.65;8.20;;;23.20;56.70;;;;;;5087993;23;20220;-88
2022/03/15 12:25:33;;;;;;;21.65;8.10;;;24.00;54.00;;;;;;5002567;28;20372;-89
2022/03/15 12:28:03;;;;;;;16.42;8.05;;;22.40;54.80;;;;;;5001089;28;20037;-89
2022/03/15 12:30:30;;;;;;;20.08;7.95;;;21.90;55.70;;;;;;5001866;28;20398;-89
2022/03/15 12:32:57;;;;;;;16.75;7.78;;;21.70;55.70;;;;;;5001193;28;20019;-87
2022/03/15 12:35:29;;;;;;;21.10;8.13;;;21.30;56.30;;;;;;4985830;28;20038;-89